Time;durP1;ratioP1;P1;durP2;ratioP2;P2;SDS_P1;SDS_P2;PMS_P1;PMS_P2;Temp;Humidity;BMP_temperature;BMP_pressure;BME280_temperature;BME280_humidity;BME280_pressure;Samples;Min_cycle;Max_cycle;Signal;HPM_P1;HPM_P2
2024/03/02 00:01:12;;;;;;;13.85;5.72;;;;;;;7.83;100.00;100084.06;6252299;28;20058;-73
2024/03/02 00:04:13;;;;;;;14.52;5.68;;;;;;;7.78;100.00;100081.69;6230249;28;20045;-72
2024/03/02 00:07:15;;;;;;;13.63;5.78;;;;;;;7.78;100.00;100084.31;6226366;28;20038;-72
2024/03/02 00:10:23;;;;;;;11.07;5.07;;;;;;;7.77;100.00;100085.25;6227018;28;20045;-74
2024/03/02 00:13:24;;;;;;;9.52;5.38;;;;;;;7.79;100.00;100087.78;6227394;28;20175;-72
2024/03/02 00:16:31;;;;;;;12.98;6.57;;;;;;;7.76;100.00;100080.91;6227250;28;20053;-72
2024/03/02 00:19:32;;;;;;;16.10;6.38;;;;;;;7.74;100.00;100087.16;6226733;28;20057;-73
2024/03/02 00:22:36;;;;;;;12.48;6.10;;;;;;;7.75;100.00;100087.06;6227704;28;20050;-73
2024/03/02 00:25:44;;;;;;;15.68;7.18;;;;;;;7.74;100.00;100089.78;6234686;28;20339;-73
2024/03/02 00:28:46;;;;;;;11.57;6.03;;;;;;;7.76;100.00;100094.00;6236422;28;20052;-73
2024/03/02 00:31:48;;;;;;;14.30;6.13;;;;;;;7.76;100.00;100091.38;6251498;28;20327;-72
2024/03/02 00:34:49;;;;;;;16.63;8.27;;;;;;;7.76;100.00;100099.22;6250825;28;20041;-72
2024/03/02 00:37:51;;;;;;;12.57;6.15;;;;;;;7.77;100.00;100090.47;6251220;28;20369;-73
2024/03/02 00:40:53;;;;;;;15.95;7.85;;;;;;;7.72;100.00;100089.88;6250757;28;20046;-72
2024/03/02 00:43:58;;;;;;;11.35;6.10;;;;;;;7.70;100.00;100096.09;6251535;28;20061;-72
2024/03/02 00:47:00;;;;;;;14.05;7.40;;;;;;;7.69;100.00;100100.47;6251250;28;20049;-72
2024/03/02 00:50:03;;;;;;;14.68;7.10;;;;;;;7.72;100.00;100096.84;6250513;28;20045;-72
2024/03/02 00:53:05;;;;;;;20.42;7.75;;;;;;;7.66;100.00;100091.94;6250987;28;20254;-73
2024/03/02 00:56:10;;;;;;;18.08;7.10;;;;;;;7.63;100.00;100098.19;6250515;28;20319;-73
2024/03/02 00:59:12;;;;;;;15.32;7.53;;;;;;;7.61;100.00;100094.78;6250577;28;20442;-73
2024/03/02 01:02:13;;;;;;;15.82;7.45;;;;;;;7.58;100.00;100093.16;6250858;28;20049;-73
2024/03/02 01:05:14;;;;;;;14.75;6.85;;;;;;;7.55;100.00;100097.75;6250489;28;20048;-73
2024/03/02 01:08:16;;;;;;;16.20;7.13;;;;;;;7.53;100.00;100078.66;6250265;28;20049;-72
2024/03/02 01:11:21;;;;;;;13.73;7.10;;;;;;;7.47;100.00;100092.88;6250814;28;20046;-73
2024/03/02 01:14:23;;;;;;;17.60;7.75;;;;;;;7.42;100.00;100087.06;6250196;28;20433;-73
2024/03/02 01:17:24;;;;;;;14.82;6.95;;;;;;;7.42;100.00;100083.59;6250437;28;20037;-73
2024/03/02 01:20:25;;;;;;;15.85;6.53;;;;;;;7.42;100.00;100089.66;6249837;28;20045;-73
2024/03/02 01:23:27;;;;;;;13.65;6.95;;;;;;;7.38;100.00;100078.53;6245034;28;20176;-73
2024/03/02 01:26:30;;;;;;;16.58;7.70;;;;;;;7.34;100.00;100076.97;6247013;28;20045;-72
2024/03/02 01:29:32;;;;;;;13.30;6.63;;;;;;;7.35;100.00;100078.66;6234469;28;20049;-73
2024/03/02 01:32:33;;;;;;;21.13;8.10;;;;;;;7.37;100.00;100071.59;6225727;28;20042;-73
2024/03/02 01:35:35;;;;;;;16.00;7.03;;;;;;;7.39;100.00;100068.91;6231607;28;20435;-73
2024/03/02 01:38:36;;;;;;;14.98;6.60;;;;;;;7.36;100.00;100067.31;6231045;28;20046;-73
2024/03/02 01:41:39;;;;;;;14.73;6.90;;;;;;;7.36;100.00;100071.69;6234889;28;20061;-72
2024/03/02 01:44:40;;;;;;;10.20;5.68;;;;;;;7.37;100.00;100060.31;6225484;28;20052;-72
2024/03/02 01:47:42;;;;;;;12.32;5.95;;;;;;;7.36;100.00;100059.47;6226571;28;20038;-72
2024/03/02 01:50:43;;;;;;;15.55;6.72;;;;;;;7.38;100.00;100054.16;6225206;28;20057;-73
2024/03/02 01:53:45;;;;;;;16.23;6.47;;;;;;;7.36;100.00;100054.25;6225719;28;20042;-72
2024/03/02 01:56:48;;;;;;;13.85;6.53;;;;;;;7.36;100.00;100054.25;6225240;28;20053;-73
2024/03/02 01:59:50;;;;;;;16.58;7.35;;;;;;;7.39;100.00;100055.84;6225260;28;20323;-73
2024/03/02 02:02:52;;;;;;;13.82;6.15;;;;;;;7.42;100.00;100047.84;6225806;28;20050;-72
2024/03/02 02:05:54;;;;;;;14.52;6.90;;;;;;;7.47;100.00;100045.84;6230743;28;20430;-73
2024/03/02 02:08:55;;;;;;;13.45;6.53;;;;;;;7.45;100.00;100034.63;6224978;28;20057;-73
2024/03/02 02:11:58;;;;;;;16.00;7.60;;;;;;;7.41;100.00;100040.94;6225312;28;20061;-73
2024/03/02 02:14:59;;;;;;;13.52;6.50;;;;;;;7.32;100.00;100025.72;6225113;28;20176;-73
2024/03/02 02:18:01;;;;;;;12.43;6.18;;;;;;;7.26;100.00;100036.47;6225047;28;20346;-72
2024/03/02 02:21:03;;;;;;;16.10;6.40;;;;;;;7.19;100.00;100030.72;6225187;28;20057;-73
2024/03/02 02:24:06;;;;;;;12.07;5.50;;;;;;;7.15;100.00;100028.34;6224919;28;20172;-73
2024/03/02 02:27:07;;;;;;;13.93;6.53;;;;;;;7.11;100.00;100014.59;6225424;28;20053;-72
2024/03/02 02:30:09;;;;;;;12.10;5.85;;;;;;;7.09;100.00;100024.28;6225698;28;20042;-73
2024/03/02 02:33:11;;;;;;;12.55;6.43;;;;;;;7.05;100.00;100015.75;6229782;28;20435;-73
2024/03/02 02:36:12;;;;;;;14.10;6.15;;;;;;;6.99;100.00;100020.41;6230466;28;20046;-73
2024/03/02 02:39:19;;;;;;;12.95;5.78;;;;;;;6.98;100.00;100018.75;6229066;28;20476;-73
2024/03/02 02:42:20;;;;;;;12.50;6.72;;;;;;;6.94;100.00;100027.66;6229697;28;20045;-73
2024/03/02 02:45:21;;;;;;;11.32;6.03;;;;;;;6.86;100.00;100026.28;6233870;28;20060;-73
2024/03/02 02:48:23;;;;;;;14.02;6.43;;;;;;;6.81;100.00;100032.63;6231156;28;20050;-73
2024/03/02 02:51:25;;;;;;;8.90;5.10;;;;;;;6.74;100.00;100033.88;6229540;28;20346;-73
2024/03/02 02:54:27;;;;;;;10.80;5.80;;;;;;;6.70;100.00;100033.16;6228989;28;20056;-73
2024/03/02 02:57:31;;;;;;;11.43;5.63;;;;;;;6.65;100.00;100022.09;6229152;28;20049;-73
2024/03/02 03:00:32;;;;;;;12.25;6.10;;;;;;;6.60;100.00;100016.25;6228772;28;20042;-72
2024/03/02 03:03:33;;;;;;;10.60;4.80;;;;;;;6.54;100.00;100017.41;6228931;28;20056;-73
2024/03/02 03:06:35;;;;;;;12.45;5.93;;;;;;;6.49;100.00;100011.53;6229108;28;20045;-73
2024/03/02 03:09:39;;;;;;;11.60;5.35;;;;;;;6.48;100.00;100009.03;6228432;28;20045;-73
2024/03/02 03:12:42;;;;;;;16.15;6.40;;;;;;;6.45;100.00;100009.16;6245527;28;20125;-73
2024/03/02 03:15:44;;;;;;;13.48;5.88;;;;;;;6.42;100.00;99999.72;6252862;28;20065;-73
2024/03/02 03:18:45;;;;;;;11.32;5.82;;;;;;;6.38;100.00;99995.56;6252793;28;20087;-73
2024/03/02 03:21:46;;;;;;;9.35;4.53;;;;;;;6.36;100.00;100002.66;6244421;28;20053;-73
2024/03/02 03:24:49;;;;;;;10.82;5.30;;;;;;;6.38;100.00;99999.94;6240148;28;20112;-73
2024/03/02 03:27:52;;;;;;;11.27;5.50;;;;;;;6.37;100.00;100001.72;6249125;28;20038;-73
2024/03/02 03:30:53;;;;;;;10.43;5.30;;;;;;;6.37;100.00;99999.09;6249626;28;20046;-73
2024/03/02 03:33:55;;;;;;;10.57;5.30;;;;;;;6.36;100.00;100002.66;6252658;28;20053;-73
2024/03/02 03:36:56;;;;;;;12.98;5.45;;;;;;;6.37;100.00;99996.50;6252692;28;20473;-73
2024/03/02 03:39:59;;;;;;;11.82;5.72;;;;;;;6.34;100.00;100000.09;6239551;28;20053;-73
2024/03/02 03:43:00;;;;;;;17.48;5.85;;;;;;;6.34;100.00;100002.69;6252644;28;20050;-74
2024/03/02 03:46:02;;;;;;;11.18;5.18;;;;;;;6.36;100.00;100000.03;6251907;28;20369;-74
2024/03/02 03:49:03;;;;;;;11.55;5.05;;;;;;;6.39;100.00;99999.88;6252366;28;20422;-74
2024/03/02 03:52:05;;;;;;;10.52;5.68;;;;;;;6.44;100.00;99989.22;6253032;28;20052;-73
2024/03/02 03:55:08;;;;;;;9.57;5.15;;;;;;;6.46;100.00;99996.06;6252299;28;20056;-73
2024/03/02 03:58:10;;;;;;;13.43;5.15;;;;;;;6.51;100.00;99988.00;6252719;28;20457;-73
2024/03/02 04:01:11;;;;;;;12.23;5.70;;;;;;;6.56;100.00;99988.63;6252462;28;20056;-73
2024/03/02 04:04:12;;;;;;;10.88;5.28;;;;;;;6.66;100.00;99995.06;6252076;28;20076;-73
2024/03/02 04:07:14;;;;;;;11.65;6.22;;;;;;;6.69;100.00;99994.09;6252447;28;20045;-74
2024/03/02 04:10:17;;;;;;;14.48;5.68;;;;;;;6.72;100.00;99993.91;6252243;28;20050;-73
2024/03/02 04:13:18;;;;;;;14.52;6.10;;;;;;;6.71;100.00;99997.47;6252874;28;20137;-73
2024/03/02 04:16:20;;;;;;;15.75;6.07;;;;;;;6.75;100.00;99989.38;6252319;28;20050;-73
2024/03/02 04:19:21;;;;;;;11.27;5.68;;;;;;;6.79;100.00;99992.69;6251584;28;20343;-73
2024/03/02 04:22:22;;;;;;;15.40;6.20;;;;;;;6.80;100.00;99995.22;6252001;28;20056;-73
2024/03/02 04:25:25;;;;;;;17.15;5.93;;;;;;;6.83;100.00;99989.88;6251650;28;20357;-73
2024/03/02 04:28:26;;;;;;;13.45;6.20;;;;;;;6.85;100.00;99984.56;6250715;28;20449;-73
2024/03/02 04:31:27;;;;;;;15.73;6.35;;;;;;;6.80;100.00;99986.56;6245486;28;20053;-73
2024/03/02 04:34:29;;;;;;;13.82;6.20;;;;;;;6.79;100.00;99990.09;6249924;28;20053;-73
2024/03/02 04:37:30;;;;;;;13.02;6.00;;;;;;;6.81;100.00;99989.09;6244672;28;20044;-73
2024/03/02 04:40:33;;;;;;;13.95;6.72;;;;;;;6.81;100.00;99976.06;6249666;28;20457;-72
2024/03/02 04:43:35;;;;;;;13.20;6.43;;;;;;;6.74;100.00;99965.97;6251681;28;20053;-73
2024/03/02 04:46:36;;;;;;;16.90;7.40;;;;;;;6.81;100.00;99965.59;6251325;28;20045;-73
2024/03/02 04:49:38;;;;;;;15.45;7.07;;;;;;;6.89;100.00;99965.19;6250951;28;20056;-73
2024/03/02 04:52:39;;;;;;;14.85;6.90;;;;;;;7.01;100.00;99977.66;6250811;28;20339;-73
2024/03/02 04:56:19;;;;;;;17.45;7.63;;;;;;;7.10;100.00;99986.78;6250661;28;20365;-73
2024/03/02 04:59:20;;;;;;;13.70;7.35;;;;;;;7.12;100.00;99987.53;6250853;28;20049;-73
2024/03/02 05:02:22;;;;;;;14.60;7.35;;;;;;;7.14;100.00;100001.38;6251052;28;20335;-74
2024/03/02 05:05:23;;;;;;;13.63;7.07;;;;;;;7.14;100.00;99997.94;6250908;28;20052;-73
2024/03/02 05:08:25;;;;;;;19.27;8.13;;;;;;;7.13;100.00;99997.09;6250513;28;20056;-74
2024/03/02 05:11:48;;;;;;;17.30;7.75;;;;;;;7.08;100.00;99999.06;6251451;28;20049;-74
2024/03/02 05:14:49;;;;;;;22.95;9.07;;;;;;;7.04;100.00;99998.41;6250874;28;20093;-73
2024/03/02 05:17:51;;;;;;;20.75;8.43;;;;;;;7.04;100.00;100001.00;6251006;28;20057;-73
2024/03/02 05:20:52;;;;;;;15.13;7.05;;;;;;;7.00;100.00;100009.91;6250727;28;20354;-73
2024/03/02 05:23:53;;;;;;;17.05;6.93;;;;;;;6.94;100.00;100011.97;6251536;28;20049;-73
2024/03/02 05:26:56;;;;;;;14.75;6.75;;;;;;;6.93;100.00;100007.69;6251398;28;20362;-73
2024/03/02 05:29:58;;;;;;;13.27;6.82;;;;;;;6.93;100.00;100008.53;6242703;28;20053;-73
2024/03/02 05:32:59;;;;;;;13.38;6.35;;;;;;;6.85;100.00;100014.13;6250472;28;20420;-73
2024/03/02 05:36:01;;;;;;;15.85;6.63;;;;;;;6.83;100.00;100009.91;6250526;28;20071;-73
2024/03/02 05:39:05;;;;;;;21.13;8.38;;;;;;;6.77;100.00;100024.13;6250237;28;20053;-72
2024/03/02 05:42:08;;;;;;;17.27;7.68;;;;;;;6.77;100.00;100029.34;6250988;28;20048;-73
2024/03/02 05:45:10;;;;;;;15.07;7.35;;;;;;;6.76;100.00;100018.97;6249973;28;20045;-72
2024/03/02 05:48:11;;;;;;;19.92;8.15;;;;;;;6.72;100.00;100013.06;6249910;28;20041;-72
2024/03/02 05:51:13;;;;;;;20.00;8.38;;;;;;;6.68;100.00;100018.50;6250506;28;20100;-73
2024/03/02 05:54:14;;;;;;;15.15;6.80;;;;;;;6.64;100.00;100024.81;6249783;28;20053;-73
2024/03/02 05:57:31;;;;;;;14.70;7.25;;;;;;;6.63;100.00;100030.91;6250305;28;20413;-73
2024/03/02 06:00:33;;;;;;;14.77;6.65;;;;;;;6.64;100.00;100028.25;6250010;28;20147;-73
2024/03/02 06:03:34;;;;;;;14.75;6.85;;;;;;;6.61;100.00;100031.00;6250427;28;20053;-73
2024/03/02 06:06:36;;;;;;;16.52;7.22;;;;;;;6.54;100.00;100035.69;6253293;28;20056;-73
2024/03/02 06:09:37;;;;;;;16.45;6.90;;;;;;;6.51;100.00;100029.75;6254706;28;20484;-73
2024/03/02 06:12:40;;;;;;;17.15;6.88;;;;;;;6.47;100.00;100034.28;6254934;28;20139;-73
2024/03/02 06:15:41;;;;;;;17.15;7.97;;;;;;;6.45;100.00;100040.47;6254753;28;20049;-73
2024/03/02 06:18:42;;;;;;;16.52;7.97;;;;;;;6.42;100.00;100038.03;6254433;28;20056;-73
2024/03/02 06:21:44;;;;;;;15.30;7.15;;;;;;;6.42;100.00;100038.03;6254712;28;20056;-73
2024/03/02 06:24:45;;;;;;;17.25;7.88;;;;;;;6.45;100.00;100043.09;6254430;28;20053;-72
2024/03/02 06:27:48;;;;;;;17.45;7.45;;;;;;;6.47;100.00;100044.72;6254304;28;20045;-73
2024/03/02 06:30:49;;;;;;;15.80;7.18;;;;;;;6.48;100.00;100053.38;6253443;28;20045;-73
2024/03/02 06:33:51;;;;;;;14.57;6.90;;;;;;;6.52;100.00;100052.31;6246132;28;20046;-73
2024/03/02 06:36:52;;;;;;;15.35;6.97;;;;;;;6.52;100.00;100049.72;6246057;28;20048;-73
2024/03/02 06:39:53;;;;;;;13.27;6.65;;;;;;;6.53;100.00;100059.22;6253790;28;20366;-73
2024/03/02 06:42:56;;;;;;;17.35;7.65;;;;;;;6.51;100.00;100067.16;6254507;28;20056;-73
2024/03/02 06:45:57;;;;;;;20.02;8.75;;;;;;;6.52;100.00;100058.38;6252330;28;20049;-72
2024/03/02 06:48:58;;;;;;;21.75;7.93;;;;;;;6.54;100.00;100067.00;6248214;28;20045;-73
2024/03/02 06:52:00;;;;;;;22.05;8.48;;;;;;;6.53;100.00;100060.06;6251537;28;20046;-73
2024/03/02 06:55:01;;;;;;;17.88;7.45;;;;;;;6.60;100.00;100071.09;6240375;28;20057;-74
2024/03/02 06:58:04;;;;;;;21.17;8.70;;;;;;;6.72;100.00;100069.63;6254172;28;20045;-73
2024/03/02 07:01:06;;;;;;;20.48;8.43;;;;;;;6.74;100.00;100075.66;6253987;28;20111;-74
2024/03/02 07:04:07;;;;;;;21.33;9.45;;;;;;;6.83;100.00;100069.97;6253881;28;20457;-73
2024/03/02 07:07:08;;;;;;;21.23;8.85;;;;;;;6.91;100.00;100067.84;6254059;28;20041;-73
2024/03/02 07:10:10;;;;;;;23.25;8.40;;;;;;;7.01;100.00;100074.28;6253521;28;20053;-73
2024/03/02 07:13:13;;;;;;;23.42;10.07;;;;;;;7.16;100.00;100064.84;6245261;28;20474;-72
2024/03/02 07:16:27;;;;;;;17.92;7.85;;;;;;;7.29;100.00;100068.53;6232986;28;20053;-73
2024/03/02 07:19:29;;;;;;;25.20;8.90;;;;;;;7.36;100.00;100069.09;6250945;28;20053;-73
2024/03/02 07:22:30;;;;;;;28.98;9.43;;;;;;;7.47;100.00;100071.13;6253465;28;20335;-73
2024/03/02 07:25:32;;;;;;;24.33;8.65;;;;;;;7.55;100.00;100067.22;6253593;28;20360;-72
2024/03/02 07:28:35;;;;;;;20.65;9.13;;;;;;;7.71;100.00;100072.47;6253044;28;20052;-73
2024/03/02 07:31:36;;;;;;;19.60;9.32;;;;;;;7.76;100.00;100077.47;6245021;28;20357;-73
2024/03/02 07:34:38;;;;;;;22.88;9.73;;;;;;;7.94;100.00;100081.72;6244904;28;20445;-71
2024/03/02 07:37:39;;;;;;;19.13;8.13;;;;;;;8.06;100.00;100090.69;6252743;28;20111;-73
2024/03/02 07:40:40;;;;;;;22.08;9.60;;;;;;;8.13;100.00;100095.53;6247107;28;20045;-73
2024/03/02 07:43:43;;;;;;;21.98;9.02;;;;;;;8.21;100.00;100087.25;6236733;28;20340;-74
2024/03/02 07:46:46;;;;;;;22.10;9.23;;;;;;;8.33;100.00;100083.97;6252503;28;20056;-73
2024/03/02 07:49:47;;;;;;;24.27;8.52;;;;;;;8.49;100.00;100094.47;6243981;28;20045;-73
2024/03/02 07:52:49;;;;;;;24.90;9.52;;;;;;;8.50;100.00;100101.41;6236983;28;20065;-72
2024/03/02 07:55:51;;;;;;;23.92;8.27;;;;;;;8.58;100.00;100099.22;6227683;28;20049;-72
2024/03/02 07:58:54;;;;;;;22.25;9.73;;;;;;;8.62;100.00;100095.47;6227476;28;20046;-72
2024/03/02 08:01:56;;;;;;;23.30;9.90;;;;;;;8.64;100.00;100090.16;6230181;28;20049;-73
2024/03/02 08:04:57;;;;;;;21.30;8.57;;;;;;;8.71;100.00;100090.66;6244091;28;20099;-72
2024/03/02 08:07:59;;;;;;;21.00;8.98;;;;;;;8.79;100.00;100093.69;6249430;28;20046;-73
2024/03/02 08:11:00;;;;;;;21.20;9.23;;;;;;;8.90;100.00;100096.53;6252068;28;20049;-73
2024/03/02 08:14:03;;;;;;;23.58;9.30;;;;;;;8.98;100.00;100098.72;6252025;28;20045;-72
2024/03/02 08:17:09;;;;;;;20.30;9.05;;;;;;;9.09;100.00;100096.38;6252333;28;20421;-73
2024/03/02 08:20:11;;;;;;;20.73;9.05;;;;;;;9.13;100.00;100097.88;6251718;28;20046;-74
2024/03/02 08:23:13;;;;;;;19.27;8.45;;;;;;;9.18;100.00;100097.59;6252085;28;20053;-74
2024/03/02 08:26:14;;;;;;;21.08;8.48;;;;;;;9.23;100.00;100106.03;6251739;28;20053;-73
2024/03/02 08:29:17;;;;;;;27.73;9.07;;;;;;;9.27;100.00;100102.31;6250212;28;20049;-75
2024/03/02 08:32:19;;;;;;;24.65;7.97;;;;;;;9.32;100.00;100108.97;6242310;28;20045;-74
2024/03/02 08:35:22;;;;;;;17.02;7.95;;;;;;;9.37;100.00;100116.56;6248153;28;20050;-72
2024/03/02 08:38:23;;;;;;;18.23;7.40;;;;;;;9.34;100.00;100114.97;6245970;28;20049;-74
2024/03/02 08:41:25;;;;;;;17.45;7.40;;;;;;;9.40;100.00;100119.88;6245741;28;20042;-74
2024/03/02 08:44:27;;;;;;;19.05;7.00;;;;;;;9.48;100.00;100124.63;6248651;28;20481;-74
2024/03/02 08:47:29;;;;;;;16.30;7.30;;;;;;;9.45;100.00;100116.97;6251434;28;20453;-74
2024/03/02 08:50:30;;;;;;;16.15;7.25;;;;;;;9.46;100.00;100118.66;6251152;28;20053;-75
2024/03/02 08:53:31;;;;;;;17.33;8.10;;;;;;;9.49;100.00;100118.44;6251307;28;20361;-74
2024/03/02 08:56:33;;;;;;;18.27;7.40;;;;;;;9.53;100.00;100127.00;6251267;28;20049;-74
2024/03/02 08:59:36;;;;;;;17.35;7.45;;;;;;;9.54;100.00;100124.31;6244602;28;20319;-74
2024/03/02 09:02:37;;;;;;;18.85;7.57;;;;;;;9.52;100.00;100123.53;6235557;28;20052;-74
2024/03/02 09:05:38;;;;;;;20.42;8.32;;;;;;;9.47;100.00;100124.75;6231888;28;20496;-75
2024/03/02 09:08:40;;;;;;;18.63;7.55;;;;;;;9.43;100.00;100120.59;6239937;28;20049;-78
2024/03/02 09:11:41;;;;;;;14.57;6.65;;;;;;;9.41;100.00;100131.19;6242515;28;20052;-73
2024/03/02 09:14:44;;;;;;;12.10;5.97;;;;;;;9.38;100.00;100126.97;6250939;28;20049;-73
2024/03/02 09:17:45;;;;;;;14.15;7.05;;;;;;;9.39;100.00;100130.44;6246567;28;20045;-72
2024/03/02 09:20:47;;;;;;;17.40;7.55;;;;;;;9.40;100.00;100140.84;6242482;28;20045;-75
2024/03/02 09:23:48;;;;;;;18.95;7.88;;;;;;;9.40;100.00;100142.59;6234160;28;20061;-71
2024/03/02 09:26:49;;;;;;;16.48;7.32;;;;;;;9.46;100.00;100142.25;6240828;28;20046;-73
2024/03/02 09:29:52;;;;;;;17.83;6.85;;;;;;;9.53;100.00;100137.47;6242650;28;20438;-77
2024/03/02 09:32:53;;;;;;;16.77;7.18;;;;;;;9.50;100.00;100140.31;6250130;28;20045;-75
2024/03/02 09:35:55;;;;;;;14.98;7.95;;;;;;;9.49;100.00;100141.22;6246368;28;20698;-75
2024/03/02 09:38:56;;;;;;;18.05;7.85;;;;;;;9.53;100.00;100148.81;6241907;28;20049;-74
2024/03/02 09:41:59;;;;;;;18.45;7.03;;;;;;;9.61;100.00;100136.09;6245278;28;20366;-75
2024/03/02 09:45:02;;;;;;;14.57;6.75;;;;;;;9.69;100.00;100143.53;6249061;28;20053;-75
2024/03/02 09:48:04;;;;;;;14.65;6.38;;;;;;;9.74;100.00;100149.34;6246189;28;20057;-76
2024/03/02 09:51:06;;;;;;;11.82;5.80;;;;;;;9.83;100.00;100148.78;6241821;28;20138;-76
2024/03/02 09:54:08;;;;;;;17.17;5.95;;;;;;;9.93;100.00;100143.00;6249034;28;20362;-75
2024/03/02 09:57:10;;;;;;;20.05;6.45;;;;;;;10.03;100.00;100133.63;6242309;28;20056;-76
2024/03/02 10:00:14;;;;;;;13.88;6.35;;;;;;;10.16;100.00;100145.06;6249680;28;20596;-78
2024/03/02 10:03:16;;;;;;;14.18;5.85;;;;;;;10.27;100.00;100149.69;6249441;28;20050;-76
2024/03/02 10:06:22;;;;;;;13.05;6.05;;;;;;;10.49;100.00;100146.56;6245091;28;20180;-76
2024/03/02 10:09:28;;;;;;;14.25;5.82;;;;;;;10.68;100.00;100147.13;6246764;28;20342;-76
2024/03/02 10:12:29;;;;;;;12.15;5.05;;;;;;;10.78;100.00;100147.38;6241801;28;20124;-76
2024/03/02 10:15:32;;;;;;;11.10;4.97;;;;;;;10.89;100.00;100150.13;6243932;28;20438;-76
2024/03/02 10:18:33;;;;;;;13.50;5.25;;;;;;;10.93;100.00;100138.50;6241163;28;20057;-76
2024/03/02 10:21:35;;;;;;;11.18;4.40;;;;;;;11.05;100.00;100139.50;6248559;28;20045;-76
2024/03/02 10:24:38;;;;;;;9.40;3.75;;;;;;;11.14;100.00;100146.78;6249674;28;20539;-77
2024/03/02 10:27:40;;;;;;;11.65;4.55;;;;;;;11.23;100.00;100145.34;6250238;28;20058;-76
2024/03/02 10:30:43;;;;;;;9.75;4.20;;;;;;;11.30;100.00;100149.22;6249464;28;20465;-76
2024/03/02 10:33:45;;;;;;;8.27;4.60;;;;;;;11.28;99.97;100136.19;6249842;28;20045;-77
2024/03/02 10:36:46;;;;;;;9.27;4.53;;;;;;;11.37;100.00;100147.91;6235561;28;20446;-77
2024/03/02 10:39:47;;;;;;;10.13;4.68;;;;;;;11.34;99.77;100141.03;6248509;28;20048;-76
2024/03/02 10:42:50;;;;;;;10.45;4.63;;;;;;;11.35;96.10;100149.78;6237063;28;20346;-77
2024/03/02 10:45:55;;;;;;;10.48;4.28;;;;;;;11.42;97.67;100140.53;6231656;28;20053;-76
2024/03/02 10:48:58;;;;;;;9.27;4.10;;;;;;;11.51;98.18;100144.34;6233966;28;20049;-76
2024/03/02 10:52:00;;;;;;;9.23;4.55;;;;;;;11.58;96.89;100142.97;6251726;28;20187;-77
2024/03/02 10:55:04;;;;;;;11.15;5.35;;;;;;;11.62;96.13;100142.66;6242111;28;20060;-77
2024/03/02 10:58:07;;;;;;;10.15;5.30;;;;;;;11.53;96.53;100140.66;6253760;28;20449;-77
2024/03/02 11:01:13;;;;;;;11.93;5.20;;;;;;;11.66;94.92;100133.63;6253585;28;20049;-77
2024/03/02 11:04:17;;;;;;;8.73;4.75;;;;;;;11.58;96.04;100129.81;6235877;28;20465;-76
2024/03/02 11:07:21;;;;;;;10.30;4.60;;;;;;;11.67;97.22;100135.31;6249522;28;20038;-76
2024/03/02 11:10:24;;;;;;;15.52;4.65;;;;;;;11.86;95.68;100134.94;6229755;28;20053;-77
2024/03/02 11:13:31;;;;;;;10.35;4.85;;;;;;;11.90;94.06;100140.84;6243416;28;20052;-76
2024/03/02 11:16:36;;;;;;;11.10;4.60;;;;;;;11.92;92.93;100142.41;6238047;28;20045;-76
2024/03/02 11:19:39;;;;;;;10.63;4.90;;;;;;;12.01;95.04;100148.00;6238936;28;20042;-77
2024/03/02 11:22:41;;;;;;;9.98;4.80;;;;;;;12.00;94.76;100152.44;6239271;28;20056;-77
2024/03/02 11:25:42;;;;;;;9.50;4.75;;;;;;;12.07;94.62;100145.78;6245151;28;20052;-77
2024/03/02 11:28:43;;;;;;;10.48;4.40;;;;;;;12.19;95.39;100150.19;6252240;28;20052;-77
2024/03/02 11:32:01;;;;;;;11.10;4.75;;;;;;;12.35;94.36;100157.03;6253057;28;20342;-77
2024/03/02 11:35:03;;;;;;;12.77;4.40;;;;;;;12.38;93.82;100147.13;6236620;28;20049;-78
2024/03/02 11:38:05;;;;;;;8.63;3.80;;;;;;;12.54;90.81;100152.16;6244909;28;20049;-78
2024/03/02 11:41:09;;;;;;;8.82;4.18;;;;;;;12.73;90.87;100146.41;6252781;28;20045;-77
2024/03/02 11:44:11;;;;;;;7.85;4.28;;;;;;;12.87;88.75;100140.97;6250476;28;20045;-78
2024/03/02 11:47:16;;;;;;;9.45;4.00;;;;;;;12.98;91.13;100142.81;6238752;28;20192;-78
2024/03/02 11:50:29;;;;;;;8.50;3.80;;;;;;;13.08;87.69;100148.25;6246647;28;20053;-78
2024/03/02 11:53:32;;;;;;;9.10;5.03;;;;;;;13.23;90.42;100144.53;6244532;28;20060;-78
2024/03/02 11:56:34;;;;;;;10.13;4.45;;;;;;;13.34;87.40;100136.66;6252682;28;20060;-79
2024/03/02 11:59:36;;;;;;;8.68;4.53;;;;;;;13.54;87.02;100129.91;6237854;28;20041;-78
2024/03/02 12:02:41;;;;;;;8.38;4.10;;;;;;;13.71;84.79;100132.09;6238536;28;20045;-78
2024/03/02 12:05:43;;;;;;;8.70;4.25;;;;;;;13.78;81.44;100129.00;6240102;28;20057;-79
2024/03/02 12:08:45;;;;;;;8.68;3.67;;;;;;;14.00;81.02;100126.38;6240162;28;20049;-79
2024/03/02 12:11:46;;;;;;;8.88;3.92;;;;;;;14.10;81.43;100126.50;6235502;28;20049;-79
2024/03/02 12:14:52;;;;;;;8.57;3.67;;;;;;;14.33;79.57;100124.69;6238977;28;20133;-79
2024/03/02 12:17:55;;;;;;;7.18;3.60;;;;;;;14.55;79.16;100121.22;6249668;28;20076;-76
2024/03/02 12:20:58;;;;;;;6.90;3.22;;;;;;;14.57;77.33;100117.47;6243297;28;20046;-78
2024/03/02 12:23:59;;;;;;;5.85;3.50;;;;;;;14.82;77.09;100120.81;6237412;28;20046;-78
2024/03/02 12:27:01;;;;;;;6.00;3.38;;;;;;;15.07;76.93;100111.69;6250356;28;20125;-77
2024/03/02 12:30:04;;;;;;;7.45;3.50;;;;;;;15.02;74.19;100111.25;6244860;28;20056;-78
2024/03/02 12:33:07;;;;;;;7.38;3.40;;;;;;;15.07;75.03;100107.25;6252271;28;20049;-78
2024/03/02 12:36:11;;;;;;;5.95;3.50;;;;;;;15.28;73.76;100109.94;6251499;28;20056;-78
2024/03/02 12:39:13;;;;;;;6.97;3.13;;;;;;;15.37;71.52;100103.88;6249702;28;20037;-78
2024/03/02 12:42:14;;;;;;;5.05;2.95;;;;;;;15.45;70.25;100098.78;6244638;28;20346;-79
2024/03/02 12:45:23;;;;;;;5.45;2.60;;;;;;;15.53;68.75;100092.81;6238063;28;20361;-78
2024/03/02 12:48:26;;;;;;;5.13;3.25;;;;;;;15.42;71.34;100095.53;6241755;28;20053;-76
2024/03/02 12:51:28;;;;;;;7.72;2.58;;;;;;;15.50;71.21;100092.25;6235881;28;20357;-78
2024/03/02 12:54:29;;;;;;;7.82;2.88;;;;;;;15.50;70.41;100090.44;6233618;28;20049;-77
2024/03/02 12:57:31;;;;;;;8.35;2.63;;;;;;;15.59;69.05;100091.47;6240766;28;20052;-77
2024/03/02 13:00:35;;;;;;;8.48;2.83;;;;;;;15.74;70.53;100090.19;6243077;28;20049;-78
2024/03/02 13:03:38;;;;;;;5.18;2.53;;;;;;;15.72;68.10;100086.84;6242045;28;20056;-78
2024/03/02 13:06:40;;;;;;;4.97;2.58;;;;;;;15.66;68.10;100084.69;6242907;28;20357;-77
2024/03/02 13:09:42;;;;;;;4.70;2.47;;;;;;;15.84;65.88;100077.00;6239101;28;20041;-76
2024/03/02 13:12:43;;;;;;;4.63;2.45;;;;;;;16.18;68.42;100091.66;6243133;28;20045;-77
2024/03/02 13:15:45;;;;;;;4.28;2.22;;;;;;;16.29;65.48;100076.63;6244091;28;20046;-77
2024/03/02 13:18:48;;;;;;;4.97;2.40;;;;;;;16.56;66.95;100082.13;6246091;28;20045;-77
2024/03/02 13:21:50;;;;;;;5.15;2.40;;;;;;;16.72;64.60;100082.47;6244843;28;21604;-77
2024/03/02 13:24:54;;;;;;;3.72;2.17;;;;;;;16.80;63.53;100079.13;6243403;28;20048;-77
2024/03/02 13:27:55;;;;;;;3.08;1.88;;;;;;;16.61;63.74;100079.91;6234967;28;20053;-77
2024/03/02 13:30:57;;;;;;;4.28;2.00;;;;;;;16.58;63.52;100077.53;6232508;28;20430;-77
2024/03/02 13:33:59;;;;;;;3.70;2.13;;;;;;;16.65;63.87;100069.88;6240220;28;20393;-76
2024/03/02 13:37:01;;;;;;;3.17;2.05;;;;;;;16.37;63.44;100066.19;6245623;28;20457;-78
2024/03/02 13:40:05;;;;;;;3.72;2.45;;;;;;;16.25;64.53;100076.03;6236657;28;20041;-76
2024/03/02 13:43:06;;;;;;;2.72;1.92;;;;;;;16.48;64.18;100077.50;6231800;28;20046;-77
2024/03/02 13:46:07;;;;;;;4.55;1.83;;;;;;;16.14;63.29;100069.03;6233569;28;20050;-79
2024/03/02 13:49:10;;;;;;;3.05;2.03;;;;;;;15.85;64.49;100066.28;6239672;28;20139;-72
2024/03/02 13:52:13;;;;;;;4.53;2.47;;;;;;;16.00;64.80;100072.06;6238119;28;20116;-76
2024/03/02 13:55:14;;;;;;;5.63;2.65;;;;;;;16.57;63.87;100072.34;6231440;28;20623;-76
2024/03/02 13:58:16;;;;;;;3.88;2.47;;;;;;;16.83;62.98;100068.25;6236865;28;20135;-76
2024/03/02 14:01:18;;;;;;;5.03;2.30;;;;;;;16.81;62.50;100058.75;6224212;28;20050;-77